首页
METAR-TAF:

METAR-TAF

机场 :

Meridian Regional Airport (Key Field)

子午线, 密西西比州, 美国

纬度: 32-20-17N, 经度: 088-44-52W, 海拔: 90米

当前天气观测

该预报发布于10分钟前的13:58 UTC
风速4节,风向东北
温度 27°C
湿度 79%
气压 1015 hPa
能見度: 16.1公里
天空无云

METAR: KMEI 251358Z 04004KT 10SM CLR 27/23 A2997 RMK AO2 SLP145 T02670233

时间: 09:08 (14:08 UTC)

预报

该预报发布于2小时和48分钟前的11:20 UTC
预报有效从25日的 12点(UTC)到 26日的 12点(UTC)
风速节,风向
能見度: 10公里
天空无云
从 25日的 1500点(UTC)
风速5节,风向南转南东
能見度: 10公里
散云层高于1500英尺
多云层高于2500英尺
附近有阵雨
从 25日的 1800点(UTC)
风速6节,风向
能見度: 10公里
多云层高于3500英尺
多云层高于5000英尺, 积雨云.
附近有雷暴
从 26日的 0100点(UTC)
风速7节,风向东转东南
能見度: 9.7公里
阴天层高于2000英尺
小雨
从 26日的 0400点(UTC)
风速7节,风向东南
能見度: 10公里
阴天层高于1500英尺
从 26日的 0900点(UTC)
风速3节,风向南转南东
能見度: 6.4公里
阴天层高于700英尺
小雨, 轻雾

TAF: KMEI 251120Z 2512/2612 00000KT P6SM SKC FM251500 16005KT P6SM VCSH SCT015 BKN025 FM251800 17006KT P6SM VCTS BKN035 BKN050CB FM260100 11007KT 6SM -RA OVC020 FM260400 13007KT P6SM OVC015 FM260900 16003KT 4SM -RA BR OVC007

超过4000个机场的气象观测和天气预报(METAR&TAF报告)。

可查询的气象台以黄色和红色小点在地图上表示。

将鼠标移到小点上方,可查看气象台名称。

然后点击查看天气观测和预报。

如需切换地图:点击带黑十字的绿色按钮放大地图;点击带横线的绿色按钮缩小地图;或者点击绿色箭头查看邻近地区的地图。


METAR-TAF: